createdAt,value
2019-03-31T00:00:15.856Z,48.23
2019-03-31T00:02:44.803Z,42.38
2019-03-31T00:05:13.692Z,42.75
2019-03-31T00:07:42.686Z,44.55
2019-03-31T00:10:11.818Z,43.00
2019-03-31T00:12:40.776Z,43.73
2019-03-31T00:15:10.075Z,49.05
2019-03-31T00:17:39.071Z,45.88
2019-03-31T00:20:08.270Z,53.52
2019-03-31T00:22:37.155Z,48.23
2019-03-31T00:25:06.740Z,44.70
2019-03-31T00:27:35.555Z,42.80
2019-03-31T00:30:04.930Z,44.60
2019-03-31T00:32:33.846Z,47.30
2019-03-31T00:35:02.735Z,48.23
2019-03-31T00:37:31.636Z,50.83
2019-03-31T00:40:00.517Z,59.83
2019-03-31T00:42:29.411Z,42.75
2019-03-31T00:44:58.196Z,50.92
2019-03-31T00:47:26.987Z,41.18
2019-03-31T00:49:55.881Z,44.03
2019-03-31T00:52:24.870Z,45.43
2019-03-31T00:54:53.645Z,47.08
2019-03-31T00:57:22.449Z,45.78
2019-03-31T00:59:51.336Z,48.78
2019-03-31T01:02:22.070Z,43.10
2019-03-31T01:04:51.268Z,47.73
2019-03-31T01:07:21.986Z,47.08
2019-03-31T01:09:50.775Z,44.03
2019-03-31T01:12:19.893Z,45.78
2019-03-31T01:14:48.979Z,47.08
2019-03-31T01:17:18.985Z,47.20
2019-03-31T01:19:48.387Z,47.75
2019-03-31T01:22:17.293Z,50.85
2019-03-31T01:24:46.281Z,48.30
2019-03-31T01:27:15.583Z,50.48
2019-03-31T01:29:44.470Z,50.35
2019-03-31T01:32:13.470Z,49.42
2019-03-31T01:34:42.461Z,49.58
2019-03-31T01:37:11.557Z,51.33
2019-03-31T01:39:40.653Z,57.43
2019-03-31T01:42:09.540Z,54.80
2019-03-31T01:44:38.431Z,53.50
2019-03-31T01:47:08.449Z,51.50
2019-03-31T01:49:37.336Z,52.98
2019-03-31T01:52:06.524Z,54.00
2019-03-31T01:54:35.630Z,52.85
2019-03-31T01:57:04.541Z,53.55
2019-03-31T01:59:33.308Z,51.70
2019-03-31T02:02:04.381Z,53.87
2019-03-31T02:04:32.836Z,60.90
2019-03-31T02:07:01.932Z,49.83
2019-03-31T02:09:30.820Z,60.55
2019-03-31T02:11:59.604Z,50.35
2019-03-31T02:14:28.602Z,51.37
2019-03-31T02:16:57.493Z,50.95
2019-03-31T02:19:26.384Z,53.63
2019-03-31T02:21:55.478Z,52.65
2019-03-31T02:24:24.467Z,54.38
2019-03-31T02:26:53.464Z,55.28
2019-03-31T02:29:22.458Z,53.33
2019-03-31T02:31:51.244Z,55.15
2019-03-31T02:34:20.036Z,56.63
2019-03-31T02:36:48.908Z,53.25
2019-03-31T02:39:17.811Z,55.48
2019-03-31T02:41:46.703Z,56.28
2019-03-31T02:44:15.592Z,56.70
2019-03-31T02:46:44.383Z,56.05
2019-03-31T02:49:13.273Z,57.83
2019-03-31T02:51:42.368Z,60.88
2019-03-31T02:54:11.448Z,61.08
2019-03-31T02:56:41.904Z,58.23
2019-03-31T02:59:13.956Z,57.58
2019-03-31T03:01:43.374Z,54.90
2019-03-31T03:04:14.703Z,56.63
2019-03-31T03:06:44.001Z,65.62
2019-03-31T03:09:12.998Z,61.98
2019-03-31T03:11:42.825Z,65.12
2019-03-31T03:14:13.032Z,63.83
2019-03-31T03:16:41.921Z,61.08
2019-03-31T03:19:10.921Z,61.68
2019-03-31T03:21:39.805Z,58.20
2019-03-31T03:24:08.595Z,57.65
2019-03-31T03:26:37.385Z,59.05
2019-03-31T03:29:06.476Z,61.02
2019-03-31T03:31:35.588Z,58.80
2019-03-31T03:34:04.469Z,58.52
2019-03-31T03:36:33.256Z,59.95
2019-03-31T03:39:02.143Z,61.23
2019-03-31T03:41:30.935Z,58.33
2019-03-31T03:44:02.316Z,59.98
2019-03-31T03:46:30.352Z,58.23
2019-03-31T03:48:59.271Z,57.30
2019-03-31T03:51:28.133Z,59.85
2019-03-31T03:53:57.023Z,59.18
2019-03-31T03:56:29.093Z,58.05
2019-03-31T03:58:56.337Z,59.13
2019-03-31T04:01:26.868Z,60.30
2019-03-31T04:03:55.554Z,64.32
2019-03-31T04:06:24.433Z,61.30
2019-03-31T04:08:54.040Z,58.63
2019-03-31T04:11:23.864Z,60.92
2019-03-31T04:13:52.753Z,61.53
2019-03-31T04:16:21.651Z,61.15
2019-03-31T04:18:50.432Z,61.28
2019-03-31T04:21:19.423Z,59.98
2019-03-31T04:23:48.319Z,62.00
2019-03-31T04:26:17.218Z,60.75
2019-03-31T04:28:46.200Z,61.08
2019-03-31T04:31:15.089Z,60.30
2019-03-31T04:33:51.468Z,60.70
2019-03-31T04:36:14.815Z,61.80
2019-03-31T04:38:43.706Z,60.12
2019-03-31T04:41:12.605Z,62.70
2019-03-31T04:43:41.512Z,63.48
2019-03-31T04:46:10.469Z,62.80
2019-03-31T04:48:39.371Z,62.75
2019-03-31T04:51:08.159Z,63.83
2019-03-31T04:53:37.051Z,65.92
2019-03-31T04:56:05.939Z,61.92
2019-03-31T04:58:34.831Z,66.60
2019-03-31T05:01:03.825Z,62.17
2019-03-31T05:03:32.714Z,63.68
2019-03-31T05:06:01.594Z,64.47
2019-03-31T05:08:30.408Z,63.35
2019-03-31T05:10:59.181Z,65.47
2019-03-31T05:13:28.275Z,64.47
2019-03-31T05:15:57.168Z,61.73
2019-03-31T05:18:26.062Z,66.12
2019-03-31T05:20:54.946Z,64.40
2019-03-31T05:23:23.840Z,64.72
2019-03-31T05:25:52.629Z,60.85
2019-03-31T05:28:21.620Z,60.52
2019-03-31T05:30:50.512Z,62.53
2019-03-31T05:33:19.708Z,56.55
2019-03-31T05:35:48.587Z,59.23
2019-03-31T05:38:17.385Z,60.40
2019-03-31T05:40:46.279Z,59.00
2019-03-31T05:43:15.275Z,57.78
2019-03-31T05:45:44.144Z,62.33
2019-03-31T05:48:13.154Z,60.12
2019-03-31T05:50:42.047Z,61.68
2019-03-31T05:53:10.834Z,59.65
2019-03-31T05:55:39.723Z,60.00
2019-03-31T05:58:10.245Z,59.58
2019-03-31T06:00:41.189Z,58.75
2019-03-31T06:03:10.189Z,58.15
2019-03-31T06:05:38.975Z,57.30
2019-03-31T06:08:07.861Z,58.30
2019-03-31T06:10:36.751Z,56.92
2019-03-31T06:13:05.746Z,54.03
2019-03-31T06:15:34.637Z,55.40
2019-03-31T06:18:03.425Z,55.48
2019-03-31T06:20:32.317Z,54.83
2019-03-31T06:23:01.310Z,54.85
2019-03-31T06:25:30.198Z,55.67
2019-03-31T06:27:59.090Z,54.67
2019-03-31T06:30:27.981Z,53.30
2019-03-31T06:32:56.768Z,52.50
2019-03-31T06:35:25.549Z,54.38
2019-03-31T06:37:54.344Z,56.40
2019-03-31T06:40:23.338Z,53.55
2019-03-31T06:42:52.231Z,51.95
2019-03-31T06:45:22.341Z,53.80
2019-03-31T06:47:51.236Z,51.58
2019-03-31T06:50:20.031Z,53.60
2019-03-31T06:52:48.819Z,54.23
2019-03-31T06:55:17.917Z,53.87
2019-03-31T06:57:46.705Z,52.98
2019-03-31T07:00:16.001Z,51.15
2019-03-31T07:02:44.916Z,53.45
2019-03-31T07:05:13.984Z,52.40
2019-03-31T07:07:42.980Z,51.15
2019-03-31T07:10:12.058Z,52.95
2019-03-31T07:12:41.167Z,51.28
2019-03-31T07:15:11.184Z,54.45
2019-03-31T07:17:39.974Z,52.53
2019-03-31T07:20:10.751Z,53.95
2019-03-31T07:22:39.588Z,53.38
2019-03-31T07:25:12.413Z,53.38
2019-03-31T07:27:41.580Z,53.02
2019-03-31T07:30:12.815Z,55.20
2019-03-31T07:32:41.714Z,53.20
2019-03-31T07:35:18.278Z,51.08
2019-03-31T07:37:47.545Z,54.13
2019-03-31T07:40:15.510Z,53.58
2019-03-31T07:45:14.983Z,53.65
2019-03-31T07:47:44.514Z,53.98
2019-03-31T07:50:18.083Z,56.20
2019-03-31T07:52:47.075Z,54.55
2019-03-31T07:55:17.867Z,55.95
2019-03-31T07:57:49.640Z,53.65
2019-03-31T08:00:21.019Z,56.18
2019-03-31T08:02:50.017Z,55.78
2019-03-31T08:05:32.398Z,55.23
2019-03-31T08:07:49.634Z,54.03
2019-03-31T08:10:18.990Z,52.45
2019-03-31T08:12:47.823Z,54.38
2019-03-31T08:15:17.026Z,50.58
2019-03-31T08:17:46.116Z,50.67
2019-03-31T08:20:17.567Z,48.17
2019-03-31T08:22:46.560Z,49.03
2019-03-31T08:25:16.075Z,47.03
2019-03-31T08:27:45.263Z,44.55
2019-03-31T08:30:15.177Z,42.93
2019-03-31T08:32:44.072Z,40.12
2019-03-31T08:35:13.418Z,37.75
2019-03-31T08:37:42.362Z,39.55
2019-03-31T08:40:12.481Z,37.70
2019-03-31T08:42:41.684Z,36.42
2019-03-31T08:45:10.900Z,36.28
2019-03-31T08:47:39.878Z,34.48
2019-03-31T08:50:09.171Z,32.95
2019-03-31T08:52:38.160Z,33.70
2019-03-31T08:55:07.489Z,31.95
2019-03-31T08:57:36.353Z,31.48
2019-03-31T09:00:07.394Z,31.42
2019-03-31T09:02:37.307Z,30.62
2019-03-31T09:05:08.893Z,32.53
2019-03-31T09:07:37.944Z,29.73
2019-03-31T09:10:09.305Z,30.85
2019-03-31T09:12:39.045Z,29.48
2019-03-31T09:15:10.157Z,30.68
2019-03-31T09:17:39.162Z,29.45
2019-03-31T09:20:08.551Z,29.92
2019-03-31T09:22:37.649Z,29.37
2019-03-31T09:25:07.360Z,29.60
2019-03-31T09:27:36.136Z,29.50
2019-03-31T09:30:10.260Z,27.58
2019-03-31T09:32:47.751Z,26.57
2019-03-31T09:35:16.953Z,25.57
2019-03-31T09:37:46.057Z,27.55
2019-03-31T09:40:16.880Z,27.15
2019-03-31T09:42:45.886Z,26.57
2019-03-31T09:45:17.366Z,26.12
2019-03-31T09:47:47.497Z,26.45
2019-03-31T09:50:17.507Z,26.37
2019-03-31T09:52:46.777Z,26.25
2019-03-31T09:55:15.858Z,26.17
2019-03-31T09:57:44.848Z,27.48
2019-03-31T10:00:16.521Z,27.55
2019-03-31T10:02:45.600Z,28.02
2019-03-31T10:05:15.002Z,26.82
2019-03-31T10:07:44.098Z,27.42
2019-03-31T10:10:19.231Z,30.37
2019-03-31T10:12:48.436Z,26.73
2019-03-31T10:15:18.223Z,27.27
2019-03-31T10:17:47.131Z,27.82
2019-03-31T10:20:16.125Z,27.37
2019-03-31T10:22:45.230Z,27.10
2019-03-31T10:25:14.530Z,26.30
2019-03-31T10:27:43.756Z,26.42
2019-03-31T10:30:13.054Z,25.25
2019-03-31T10:32:42.250Z,25.57
2019-03-31T10:35:11.230Z,26.90
2019-03-31T10:37:40.251Z,26.85
2019-03-31T10:40:09.756Z,26.35
2019-03-31T10:42:38.494Z,32.13
2019-03-31T10:45:08.231Z,26.33
2019-03-31T10:47:37.601Z,27.05
2019-03-31T10:50:07.952Z,25.80
2019-03-31T10:52:37.283Z,29.35
2019-03-31T10:55:10.536Z,28.38
2019-03-31T10:57:42.198Z,28.45
2019-03-31T11:00:13.033Z,30.30
2019-03-31T11:02:42.715Z,27.22
2019-03-31T11:05:11.776Z,26.85
2019-03-31T11:07:41.550Z,42.38
2019-03-31T11:10:11.731Z,112.62
2019-03-31T11:12:40.855Z,40.85
2019-03-31T11:15:10.262Z,26.07
2019-03-31T11:17:42.407Z,24.70
2019-03-31T11:20:14.823Z,24.90
2019-03-31T11:22:50.316Z,23.77
2019-03-31T11:25:25.357Z,24.72
2019-03-31T11:27:55.858Z,25.77
2019-03-31T11:30:26.605Z,24.07
2019-03-31T11:32:57.944Z,24.82
2019-03-31T11:35:30.434Z,24.45
2019-03-31T11:38:00.031Z,23.57
2019-03-31T11:40:31.703Z,23.62
2019-03-31T11:43:01.023Z,25.90
2019-03-31T11:45:31.344Z,23.83
2019-03-31T11:48:00.860Z,24.80
2019-03-31T11:50:31.553Z,24.95
2019-03-31T11:53:04.616Z,22.52
2019-03-31T11:55:36.515Z,23.10
2019-03-31T11:58:07.575Z,23.92
2019-03-31T12:00:41.158Z,24.30
2019-03-31T12:03:13.987Z,23.75
2019-03-31T12:05:44.861Z,23.98
2019-03-31T12:08:16.594Z,22.62
2019-03-31T12:10:47.229Z,22.20
2019-03-31T12:13:16.071Z,22.52
2019-03-31T12:15:44.861Z,22.62
2019-03-31T12:18:13.853Z,25.00
2019-03-31T12:20:42.652Z,26.42
2019-03-31T12:23:11.533Z,22.52
2019-03-31T12:25:40.320Z,22.05
2019-03-31T12:28:09.107Z,22.98
2019-03-31T12:30:38.003Z,23.42
2019-03-31T12:33:06.904Z,22.13
2019-03-31T12:35:35.780Z,22.82
2019-03-31T12:38:04.878Z,21.82
2019-03-31T12:40:36.205Z,23.20
2019-03-31T12:43:05.546Z,21.93
2019-03-31T12:45:34.523Z,21.07
2019-03-31T12:48:03.309Z,21.87
2019-03-31T12:50:33.082Z,21.07
2019-03-31T12:53:02.114Z,20.62
2019-03-31T12:55:31.203Z,19.55
2019-03-31T12:58:00.196Z,20.70
2019-03-31T13:00:29.092Z,19.07
2019-03-31T13:02:58.069Z,18.42
2019-03-31T13:05:26.872Z,17.60
2019-03-31T13:07:56.817Z,18.92
2019-03-31T13:10:25.980Z,16.48
2019-03-31T13:12:54.755Z,18.23
2019-03-31T13:15:23.664Z,18.10
2019-03-31T13:17:52.662Z,17.92
2019-03-31T13:20:21.547Z,18.55
2019-03-31T13:22:50.538Z,19.20
2019-03-31T13:25:19.428Z,19.02
2019-03-31T13:27:48.526Z,17.40
2019-03-31T13:30:17.531Z,18.50
2019-03-31T13:32:46.395Z,18.60
2019-03-31T13:35:15.404Z,18.32
2019-03-31T13:37:44.393Z,18.82
2019-03-31T13:40:13.698Z,20.80
2019-03-31T13:42:42.787Z,29.25
2019-03-31T13:45:11.876Z,20.27
2019-03-31T13:47:40.801Z,17.05
2019-03-31T13:50:10.178Z,19.73
2019-03-31T13:52:38.966Z,15.68
2019-03-31T13:55:09.207Z,14.75
2019-03-31T13:57:39.784Z,13.53
2019-03-31T14:00:11.117Z,15.28
2019-03-31T14:02:41.494Z,14.80
2019-03-31T14:05:10.588Z,16.45
2019-03-31T14:07:39.583Z,20.92
2019-03-31T14:10:08.715Z,16.23
2019-03-31T14:12:37.652Z,17.50
2019-03-31T14:15:18.948Z,17.17
2019-03-31T14:17:40.174Z,18.75
2019-03-31T14:20:09.226Z,14.80
2019-03-31T14:22:57.391Z,15.83
2019-03-31T14:25:26.391Z,15.75
2019-03-31T14:27:55.270Z,14.78
2019-03-31T14:30:24.318Z,15.58
2019-03-31T14:32:53.373Z,16.02
2019-03-31T14:35:22.371Z,15.35
2019-03-31T14:37:51.359Z,15.08
2019-03-31T14:40:20.577Z,15.40
2019-03-31T14:42:49.343Z,14.83
2019-03-31T14:45:29.692Z,14.45
2019-03-31T14:47:59.954Z,16.97
2019-03-31T14:50:33.602Z,16.35
2019-03-31T14:53:02.526Z,15.55
2019-03-31T14:55:31.511Z,15.95
2019-03-31T14:58:00.500Z,16.65
2019-03-31T15:00:29.287Z,15.43
2019-03-31T15:02:58.181Z,15.60
2019-03-31T15:05:27.177Z,16.75
2019-03-31T15:07:58.467Z,15.70
2019-03-31T15:10:26.593Z,16.00
2019-03-31T15:12:55.385Z,17.65
2019-03-31T15:15:24.377Z,17.25
2019-03-31T15:17:53.678Z,16.65
2019-03-31T15:20:22.567Z,19.50
2019-03-31T15:22:52.175Z,18.55
2019-03-31T15:25:21.072Z,17.17
2019-03-31T15:27:50.058Z,18.07
2019-03-31T15:30:18.966Z,18.00
2019-03-31T15:32:47.741Z,17.65
2019-03-31T15:35:16.630Z,17.37
2019-03-31T15:37:45.417Z,16.90
2019-03-31T15:40:14.311Z,17.42
2019-03-31T15:42:43.405Z,16.85
2019-03-31T15:45:12.492Z,16.00
2019-03-31T15:47:41.392Z,17.02
2019-03-31T15:50:10.399Z,16.65
2019-03-31T15:52:39.131Z,16.17
2019-03-31T15:55:08.760Z,15.28
2019-03-31T15:57:37.769Z,16.27
2019-03-31T16:00:08.875Z,15.25
2019-03-31T16:02:37.705Z,13.90
2019-03-31T16:05:08.602Z,14.58
2019-03-31T16:07:37.312Z,15.38
2019-03-31T16:10:06.927Z,15.05
2019-03-31T16:12:35.715Z,15.00
2019-03-31T16:15:06.041Z,16.97
2019-03-31T16:17:34.935Z,15.75
2019-03-31T16:20:04.743Z,14.05
2019-03-31T16:22:33.636Z,14.05
2019-03-31T16:25:06.919Z,13.43
2019-03-31T16:27:35.703Z,12.47
2019-03-31T16:30:07.074Z,14.38
2019-03-31T16:32:36.044Z,11.73
2019-03-31T16:35:05.552Z,12.60
2019-03-31T16:37:34.560Z,11.88
2019-03-31T16:40:04.686Z,12.53
2019-03-31T16:42:33.654Z,11.73
2019-03-31T16:45:02.559Z,11.48
2019-03-31T16:47:31.449Z,10.95
2019-03-31T16:50:00.350Z,12.60
2019-03-31T16:52:29.443Z,11.95
2019-03-31T16:54:58.120Z,12.85
2019-03-31T16:57:27.012Z,12.00
2019-03-31T16:59:55.802Z,11.75
2019-03-31T17:02:24.591Z,10.75
2019-03-31T17:04:53.580Z,11.03
2019-03-31T17:07:22.368Z,13.00
2019-03-31T17:09:52.058Z,10.58
2019-03-31T17:12:21.071Z,11.20
2019-03-31T17:14:49.860Z,10.10
2019-03-31T17:17:18.651Z,11.10
2019-03-31T17:19:47.437Z,12.70
2019-03-31T17:22:16.223Z,11.12
2019-03-31T17:24:45.114Z,11.53
2019-03-31T17:27:14.217Z,10.75
2019-03-31T17:29:43.304Z,10.98
2019-03-31T17:32:12.092Z,11.03
2019-03-31T17:34:40.982Z,10.68
2019-03-31T17:37:09.875Z,10.53
2019-03-31T17:39:38.769Z,9.23
2019-03-31T17:42:07.756Z,9.45
2019-03-31T17:44:36.547Z,8.88
2019-03-31T17:47:05.440Z,9.53
2019-03-31T17:49:34.183Z,8.95
2019-03-31T17:52:03.014Z,9.33
2019-03-31T17:54:31.906Z,9.83
2019-03-31T17:57:00.793Z,8.90
2019-03-31T17:59:29.580Z,9.23
2019-03-31T18:01:58.369Z,8.60
2019-03-31T18:04:27.360Z,9.03
2019-03-31T18:06:56.157Z,10.45
2019-03-31T18:09:24.935Z,9.33
2019-03-31T18:11:53.832Z,8.63
2019-03-31T18:14:22.719Z,7.83
2019-03-31T18:16:51.610Z,9.95
2019-03-31T18:19:20.503Z,8.90
2019-03-31T18:21:49.406Z,9.20
2019-03-31T18:24:18.180Z,8.23
2019-03-31T18:26:46.978Z,8.18
2019-03-31T18:29:15.753Z,9.55
2019-03-31T18:31:44.533Z,12.82
2019-03-31T18:34:34.322Z,10.60
2019-03-31T18:37:03.220Z,10.15
2019-03-31T18:39:32.002Z,23.62
2019-03-31T18:42:01.012Z,11.97
2019-03-31T18:44:29.888Z,22.75
2019-03-31T18:46:58.676Z,8.48
2019-03-31T18:49:27.464Z,7.17
2019-03-31T18:51:56.353Z,8.20
2019-03-31T18:54:26.676Z,7.20
2019-03-31T18:57:09.392Z,7.90
2019-03-31T19:02:15.142Z,6.90
2019-03-31T19:04:48.465Z,5.87
2019-03-31T19:07:27.584Z,7.53
2019-03-31T19:10:00.778Z,6.65
2019-03-31T19:12:33.763Z,6.67
2019-03-31T19:15:19.650Z,5.97
2019-03-31T19:17:52.661Z,6.50
2019-03-31T19:20:41.704Z,7.67
2019-03-31T19:23:18.078Z,6.10
2019-03-31T19:25:48.595Z,7.33
2019-03-31T19:28:34.484Z,5.70
2019-03-31T19:31:04.999Z,6.35
2019-03-31T19:33:38.510Z,6.08
2019-03-31T19:36:11.727Z,6.30
2019-03-31T19:38:51.550Z,6.67
2019-03-31T19:41:27.915Z,5.80
2019-03-31T19:44:10.449Z,5.60
2019-03-31T19:46:43.823Z,5.67
2019-03-31T19:49:14.351Z,6.20
2019-03-31T19:52:00.137Z,8.40
2019-03-31T19:54:30.467Z,6.12
2019-03-31T19:57:12.052Z,7.55
2019-03-31T19:59:53.852Z,5.85
2019-03-31T20:02:30.210Z,6.03
2019-03-31T20:05:12.616Z,5.75
2019-03-31T20:07:59.221Z,6.17
2019-03-31T20:10:33.353Z,5.40
2019-03-31T20:13:09.801Z,7.22
2019-03-31T20:15:56.407Z,6.33
2019-03-31T20:18:29.807Z,5.87
2019-03-31T20:21:15.474Z,5.25
2019-03-31T20:23:48.987Z,5.58
2019-03-31T20:26:21.872Z,5.62
2019-03-31T20:28:52.401Z,5.28
2019-03-31T20:31:39.313Z,5.78
2019-03-31T20:34:12.503Z,5.55
2019-03-31T20:36:45.796Z,5.75
2019-03-31T20:39:16.227Z,5.37
2019-03-31T20:41:58.939Z,6.95
2019-03-31T20:46:55.902Z,5.67
2019-03-31T20:49:24.801Z,5.85
2019-03-31T20:51:53.682Z,5.87
2019-03-31T20:54:22.479Z,6.97
2019-03-31T20:56:51.264Z,5.70
2019-03-31T20:59:20.792Z,6.53
2019-03-31T21:01:53.250Z,6.00
2019-03-31T21:06:50.303Z,6.08
2019-03-31T21:09:19.401Z,6.58
2019-03-31T21:11:48.291Z,5.78
2019-03-31T21:14:17.591Z,5.85
2019-03-31T21:16:47.561Z,5.65
2019-03-31T21:19:19.125Z,7.17
2019-03-31T21:21:49.119Z,5.12
2019-03-31T21:24:22.757Z,5.35
2019-03-31T21:27:00.166Z,5.65
2019-03-31T21:29:34.659Z,6.25
2019-03-31T21:32:06.852Z,5.95
2019-03-31T21:34:41.748Z,5.80
2019-03-31T21:37:13.953Z,6.15
2019-03-31T21:39:45.660Z,7.95
2019-03-31T21:42:16.930Z,6.35
2019-03-31T21:44:53.324Z,5.10
2019-03-31T21:47:25.687Z,6.15
2019-03-31T21:49:56.728Z,6.62
2019-03-31T21:52:30.613Z,6.03
2019-03-31T21:55:01.081Z,6.25
2019-03-31T21:57:34.643Z,6.53
2019-03-31T22:00:16.005Z,5.90
2019-03-31T22:02:51.890Z,5.72
2019-03-31T22:05:25.594Z,5.50
2019-03-31T22:08:03.894Z,5.92
2019-03-31T22:10:39.349Z,6.90
2019-03-31T22:13:13.605Z,5.83
2019-03-31T22:15:46.474Z,5.30
2019-03-31T22:18:21.019Z,5.50
2019-03-31T22:20:55.098Z,5.92
2019-03-31T22:23:25.553Z,7.12
2019-03-31T22:25:55.386Z,6.70
2019-03-31T22:28:25.459Z,5.97
2019-03-31T22:30:57.833Z,5.80
2019-03-31T22:33:28.789Z,6.08
2019-03-31T22:36:17.222Z,5.22
2019-03-31T22:38:47.820Z,5.53
2019-03-31T22:41:18.764Z,6.15
2019-03-31T22:43:50.686Z,5.80
2019-03-31T22:46:21.366Z,6.15
2019-03-31T22:48:52.920Z,5.60
2019-03-31T22:51:23.174Z,5.08
2019-03-31T22:53:52.337Z,5.10
2019-03-31T22:56:21.348Z,5.17
2019-03-31T22:58:54.893Z,5.00
2019-03-31T23:01:28.694Z,5.35
2019-03-31T23:03:59.350Z,4.97
2019-03-31T23:06:28.591Z,5.05
2019-03-31T23:08:59.864Z,5.67
2019-03-31T23:11:31.698Z,5.33
2019-03-31T23:14:04.483Z,4.20
2019-03-31T23:19:01.436Z,4.55
2019-03-31T23:21:30.227Z,5.37
2019-03-31T23:23:59.013Z,4.60
2019-03-31T23:26:27.909Z,4.87
2019-03-31T23:28:57.291Z,4.42
2019-03-31T23:31:26.298Z,4.17
2019-03-31T23:33:54.981Z,4.20
2019-03-31T23:36:23.872Z,4.22
2019-03-31T23:38:52.663Z,4.75
2019-03-31T23:41:22.388Z,4.40
2019-03-31T23:43:51.261Z,4.03
2019-03-31T23:46:20.049Z,4.17
2019-03-31T23:48:48.939Z,3.60
2019-03-31T23:51:17.836Z,3.47
2019-03-31T23:53:46.618Z,3.77
2019-03-31T23:56:15.306Z,5.35
2019-03-31T23:58:44.096Z,3.40
